Time;durP1;ratioP1;P1;durP2;ratioP2;P2;SDS_P1;SDS_P2;PMS_P1;PMS_P2;Temp;Humidity;BMP_temperature;BMP_pressure;BME280_temperature;BME280_humidity;BME280_pressure;Samples;Min_cycle;Max_cycle;Signal;HPM_P1;HPM_P2
2022/05/25 00:00:32;;;;;;;0.75;0.40;;;;;;;;;;4178911;28;20084;-34
2022/05/25 00:02:33;;;;;;;0.65;0.50;;;;;;;;;;4177909;28;20464;-34
2022/05/25 00:04:34;;;;;;;0.63;0.50;;;;;;;;;;4179522;28;20049;-34
2022/05/25 00:06:35;;;;;;;0.95;0.65;;;;;;;;;;4179281;28;20041;-34
2022/05/25 00:08:37;;;;;;;0.88;0.50;;;;;;;;;;4179382;28;20114;-34
2022/05/25 00:10:39;;;;;;;0.98;0.40;;;;;;;;;;4179641;28;20049;-34
2022/05/25 00:12:41;;;;;;;0.43;0.43;;;;;;;;;;4179572;28;20049;-34
2022/05/25 00:14:42;;;;;;;0.55;0.55;;;;;;;;;;4178761;28;20118;-34
2022/05/25 00:16:43;;;;;;;0.55;0.55;;;;;;;;;;4179297;28;20102;-34
2022/05/25 00:21:03;;;;;;;0.47;0.40;;;;;;;;;;4182584;28;20045;-34
2022/05/25 00:23:04;;;;;;;0.90;0.50;;;;;;;;;;4182587;28;20152;-34
2022/05/25 00:25:06;;;;;;;0.95;0.57;;;;;;;;;;4182528;28;20060;-35
2022/05/25 00:27:07;;;;;;;0.63;0.60;;;;;;;;;;4181063;28;20041;-34
2022/05/25 00:29:08;;;;;;;0.63;0.60;;;;;;;;;;4180850;28;20083;-34
2022/05/25 00:31:09;;;;;;;0.30;0.30;;;;;;;;;;4182232;28;20055;-34
2022/05/25 00:33:11;;;;;;;1.25;0.70;;;;;;;;;;4182329;28;20071;-34
2022/05/25 00:35:14;;;;;;;1.02;0.60;;;;;;;;;;4182079;28;20061;-34
2022/05/25 00:37:15;;;;;;;0.50;0.50;;;;;;;;;;4182339;28;20099;-34
2022/05/25 00:39:16;;;;;;;0.65;0.63;;;;;;;;;;4181957;28;20056;-34
2022/05/25 00:41:16;;;;;;;0.57;0.45;;;;;;;;;;4182105;28;20081;-34
2022/05/25 00:43:17;;;;;;;0.47;0.43;;;;;;;;;;4182059;28;20113;-34
2022/05/25 00:45:18;;;;;;;0.88;0.50;;;;;;;;;;4181545;28;20075;-34
2022/05/25 00:47:22;;;;;;;0.80;0.60;;;;;;;;;;4182352;28;20041;-34
2022/05/25 00:49:26;;;;;;;0.60;0.50;;;;;;;;;;4181849;28;20041;-34
2022/05/25 00:51:44;;;;;;;0.75;0.50;;;;;;;;;;4181909;28;20049;-34
2022/05/25 00:53:47;;;;;;;0.45;0.40;;;;;;;;;;4180616;28;20049;-34
2022/05/25 00:55:49;;;;;;;0.50;0.50;;;;;;;;;;4197073;28;20106;-34
2022/05/25 00:57:49;;;;;;;1.17;0.30;;;;;;;;;;4182175;28;20473;-34
2022/05/25 01:00:08;;;;;;;0.40;0.30;;;;;;;;;;4181388;28;20099;-34
2022/05/25 01:02:08;;;;;;;0.60;0.60;;;;;;;;;;4182037;28;20049;-34
2022/05/25 01:04:10;;;;;;;0.50;0.40;;;;;;;;;;4181626;28;20063;-34
2022/05/25 01:06:21;;;;;;;0.57;0.57;;;;;;;;;;4181586;28;20056;-34
2022/05/25 01:08:43;;;;;;;0.75;0.40;;;;;;;;;;4180471;28;20095;-34
2022/05/25 01:11:01;;;;;;;0.30;0.30;;;;;;;;;;4181924;28;20049;-34
2022/05/25 01:13:07;;;;;;;0.47;0.40;;;;;;;;;;4181708;28;20476;-34
2022/05/25 01:15:14;;;;;;;0.52;0.50;;;;;;;;;;4181127;28;20049;-34
2022/05/25 01:17:21;;;;;;;0.80;0.50;;;;;;;;;;4181918;28;20048;-34
2022/05/25 01:19:35;;;;;;;0.65;0.38;;;;;;;;;;4181593;28;20049;-34
2022/05/25 01:21:38;;;;;;;1.20;0.70;;;;;;;;;;4181569;28;20094;-35
2022/05/25 01:23:52;;;;;;;0.55;0.55;;;;;;;;;;4181437;28;20542;-34
2022/05/25 01:26:25;;;;;;;0.60;0.57;;;;;;;;;;4181502;28;20079;-34
2022/05/25 01:28:45;;;;;;;0.77;0.60;;;;;;;;;;4169204;28;20049;-34
2022/05/25 01:30:48;;;;;;;0.40;0.40;;;;;;;;;;4180379;28;20045;-34
2022/05/25 01:33:05;;;;;;;0.40;0.30;;;;;;;;;;4181491;28;20057;-34
2022/05/25 01:35:13;;;;;;;0.52;0.43;;;;;;;;;;4181475;28;20099;-34
2022/05/25 01:37:27;;;;;;;0.65;0.43;;;;;;;;;;4180027;28;20048;-34
2022/05/25 01:39:30;;;;;;;1.17;0.63;;;;;;;;;;4196451;28;20484;-34
2022/05/25 01:41:31;;;;;;;1.02;0.50;;;;;;;;;;4181054;28;20056;-34
2022/05/25 01:43:37;;;;;;;0.60;0.40;;;;;;;;;;4181085;28;20048;-34
2022/05/25 01:45:41;;;;;;;0.47;0.47;;;;;;;;;;4179651;28;20083;-34
2022/05/25 01:47:44;;;;;;;0.60;0.60;;;;;;;;;;4181103;28;20405;-34
2022/05/25 01:49:50;;;;;;;0.70;0.47;;;;;;;;;;4181057;28;20103;-34
2022/05/25 01:51:56;;;;;;;1.00;0.63;;;;;;;;;;4181128;28;20566;-34
2022/05/25 01:54:00;;;;;;;0.70;0.40;;;;;;;;;;4181074;28;20056;-34
2022/05/25 01:56:03;;;;;;;0.88;0.65;;;;;;;;;;4180955;28;20049;-34
2022/05/25 01:58:09;;;;;;;0.60;0.50;;;;;;;;;;4180896;28;20558;-34
2022/05/25 02:00:23;;;;;;;0.98;0.63;;;;;;;;;;4180288;28;20378;-34
2022/05/25 02:04:45;;;;;;;1.65;0.60;;;;;;;;;;4180757;28;20477;-34
2022/05/25 02:06:46;;;;;;;0.77;0.70;;;;;;;;;;4179867;28;20049;-34
2022/05/25 02:08:59;;;;;;;0.47;0.47;;;;;;;;;;4180639;28;20053;-34
2022/05/25 02:11:16;;;;;;;0.50;0.43;;;;;;;;;;4180795;28;20048;-34
2022/05/25 02:13:23;;;;;;;0.70;0.50;;;;;;;;;;4180773;28;20377;-34
2022/05/25 02:15:33;;;;;;;0.50;0.50;;;;;;;;;;4180565;28;20119;-34
2022/05/25 02:17:34;;;;;;;;;;;;;;;;;;4180088;28;20102;-34
2022/05/25 02:19:57;;;;;;;1.30;0.40;;;;;;;;;;4180638;28;19917;-34
2022/05/25 02:22:01;;;;;;;0.40;0.40;;;;;;;;;;4180778;28;20386;-34
2022/05/25 02:24:06;;;;;;;1.67;0.47;;;;;;;;;;4180450;28;20446;-34
2022/05/25 02:26:13;;;;;;;1.42;0.40;;;;;;;;;;4180747;28;20087;-34
2022/05/25 02:28:17;;;;;;;0.60;0.50;;;;;;;;;;4180488;28;20075;-34
2022/05/25 02:30:20;;;;;;;0.30;0.30;;;;;;;;;;4179958;28;20090;-34
2022/05/25 02:32:24;;;;;;;0.75;0.45;;;;;;;;;;4180442;28;20053;-34
2022/05/25 02:34:26;;;;;;;0.57;0.57;;;;;;;;;;4163525;28;20049;-35
2022/05/25 02:36:28;;;;;;;0.68;0.60;;;;;;;;;;4163946;28;20444;-34
2022/05/25 02:38:29;;;;;;;0.77;0.50;;;;;;;;;;4162573;28;20049;-34
2022/05/25 02:40:32;;;;;;;0.80;0.43;;;;;;;;;;4163996;28;20049;-34
2022/05/25 02:42:36;;;;;;;0.40;0.30;;;;;;;;;;4162115;28;20049;-34
2022/05/25 02:44:38;;;;;;;0.80;0.60;;;;;;;;;;4163243;28;20050;-34
2022/05/25 02:46:39;;;;;;;0.70;0.50;;;;;;;;;;4163512;28;20103;-34
2022/05/25 02:48:40;;;;;;;0.65;0.40;;;;;;;;;;4163656;28;20435;-34
2022/05/25 02:50:41;;;;;;;0.40;0.40;;;;;;;;;;4178939;28;20089;-34
2022/05/25 02:52:42;;;;;;;1.10;0.40;;;;;;;;;;4163841;28;20463;-34
2022/05/25 02:54:43;;;;;;;0.88;0.43;;;;;;;;;;4163547;28;20091;-34
2022/05/25 02:56:44;;;;;;;0.80;0.60;;;;;;;;;;4163599;28;20186;-34
2022/05/25 02:58:45;;;;;;;0.47;0.45;;;;;;;;;;4162988;28;20104;-34
2022/05/25 03:00:46;;;;;;;0.82;0.40;;;;;;;;;;4163416;28;20382;-34
2022/05/25 03:02:47;;;;;;;0.40;0.40;;;;;;;;;;4162094;28;20453;-34
2022/05/25 03:04:48;;;;;;;0.63;0.60;;;;;;;;;;4175640;28;20049;-34
2022/05/25 03:06:49;;;;;;;0.43;0.40;;;;;;;;;;4179868;28;20770;-34
2022/05/25 03:08:50;;;;;;;0.75;0.57;;;;;;;;;;4179775;28;20048;-34
2022/05/25 03:10:51;;;;;;;0.60;0.50;;;;;;;;;;4179822;28;20114;-34
2022/05/25 03:12:52;;;;;;;0.98;0.70;;;;;;;;;;4179818;28;20098;-34
2022/05/25 03:14:53;;;;;;;1.23;0.57;;;;;;;;;;4179209;28;20111;-34
2022/05/25 03:16:54;;;;;;;0.80;0.50;;;;;;;;;;4179736;28;20401;-34
2022/05/25 03:18:55;;;;;;;0.40;0.30;;;;;;;;;;4179790;28;20136;-34
2022/05/25 03:20:56;;;;;;;0.30;0.30;;;;;;;;;;4179530;28;20558;-34
2022/05/25 03:22:57;;;;;;;0.47;0.40;;;;;;;;;;4179686;28;20102;-34
2022/05/25 03:24:58;;;;;;;0.40;0.40;;;;;;;;;;4179544;28;20053;-34
2022/05/25 03:26:59;;;;;;;0.50;0.50;;;;;;;;;;4180015;28;20075;-34
2022/05/25 03:29:00;;;;;;;0.50;0.40;;;;;;;;;;4179474;28;20447;-34
2022/05/25 03:31:02;;;;;;;0.65;0.50;;;;;;;;;;4179478;28;20059;-34
2022/05/25 03:33:03;;;;;;;0.80;0.50;;;;;;;;;;4178680;28;20048;-34
2022/05/25 03:35:05;;;;;;;1.08;0.60;;;;;;;;;;4179614;28;20057;-34
2022/05/25 03:37:06;;;;;;;0.57;0.47;;;;;;;;;;4179680;28;20095;-34
2022/05/25 03:39:07;;;;;;;0.75;0.45;;;;;;;;;;4179265;28;20045;-34
2022/05/25 03:41:08;;;;;;;0.65;0.50;;;;;;;;;;4179522;28;20546;-34
2022/05/25 03:43:09;;;;;;;0.50;0.40;;;;;;;;;;4179601;28;20085;-34
2022/05/25 03:45:11;;;;;;;0.57;0.40;;;;;;;;;;4179059;28;20099;-34
2022/05/25 03:47:12;;;;;;;0.50;0.50;;;;;;;;;;4179496;28;20067;-34
2022/05/25 03:49:13;;;;;;;1.92;0.70;;;;;;;;;;4179409;28;20048;-34
2022/05/25 03:51:14;;;;;;;0.60;0.50;;;;;;;;;;4179530;28;20095;-34
2022/05/25 03:53:15;;;;;;;1.27;0.50;;;;;;;;;;4179428;28;20053;-34
2022/05/25 03:55:16;;;;;;;0.40;0.40;;;;;;;;;;4181697;28;20060;-34
2022/05/25 03:57:17;;;;;;;0.50;0.40;;;;;;;;;;4182799;28;20049;-34
2022/05/25 03:59:19;;;;;;;0.52;0.40;;;;;;;;;;4182195;28;20049;-34
2022/05/25 04:01:20;;;;;;;0.50;0.47;;;;;;;;;;4182953;28;20056;-34
2022/05/25 04:03:21;;;;;;;0.55;0.55;;;;;;;;;;4182680;28;20088;-34
2022/05/25 04:05:22;;;;;;;0.60;0.40;;;;;;;;;;4181629;28;20053;-34
2022/05/25 04:07:23;;;;;;;0.20;0.20;;;;;;;;;;4182755;28;20045;-34
2022/05/25 04:09:24;;;;;;;0.57;0.50;;;;;;;;;;4182279;28;20056;-34
2022/05/25 04:11:25;;;;;;;0.28;0.28;;;;;;;;;;4181038;28;20577;-34
2022/05/25 04:13:27;;;;;;;0.90;0.60;;;;;;;;;;4182234;28;20045;-34
2022/05/25 04:15:29;;;;;;;0.77;0.50;;;;;;;;;;4182275;28;20048;-34
2022/05/25 04:17:31;;;;;;;0.45;0.40;;;;;;;;;;4182376;28;20049;-34
2022/05/25 04:19:38;;;;;;;0.40;0.40;;;;;;;;;;4182213;28;20064;-34
2022/05/25 04:21:40;;;;;;;1.17;0.60;;;;;;;;;;4182549;28;20052;-34
2022/05/25 04:23:40;;;;;;;0.35;0.35;;;;;;;;;;4182187;28;20076;-34
2022/05/25 04:25:42;;;;;;;0.73;0.50;;;;;;;;;;4181099;28;20045;-34
2022/05/25 04:27:43;;;;;;;0.60;0.50;;;;;;;;;;4197620;28;20099;-34
2022/05/25 04:29:44;;;;;;;0.73;0.57;;;;;;;;;;4181726;28;20053;-34
2022/05/25 04:31:45;;;;;;;0.50;0.50;;;;;;;;;;4182339;28;20059;-34
2022/05/25 04:33:46;;;;;;;0.55;0.50;;;;;;;;;;4182064;28;20049;-34
2022/05/25 04:35:47;;;;;;;0.30;0.30;;;;;;;;;;4182167;28;20140;-34
2022/05/25 04:37:48;;;;;;;1.20;0.45;;;;;;;;;;4182244;28;20103;-34
2022/05/25 04:39:49;;;;;;;0.57;0.55;;;;;;;;;;4181994;28;20049;-34
2022/05/25 04:41:50;;;;;;;0.30;0.30;;;;;;;;;;4182007;28;20118;-34
2022/05/25 04:43:51;;;;;;;0.38;0.38;;;;;;;;;;4181578;28;20055;-34
2022/05/25 04:45:53;;;;;;;0.30;0.30;;;;;;;;;;4182183;28;20099;-34
2022/05/25 04:47:55;;;;;;;0.65;0.30;;;;;;;;;;4182065;28;20045;-34
2022/05/25 04:49:57;;;;;;;1.20;0.60;;;;;;;;;;4182195;28;20124;-34
2022/05/25 04:51:58;;;;;;;0.60;0.30;;;;;;;;;;4181949;28;20049;-34
2022/05/25 04:53:59;;;;;;;0.50;0.30;;;;;;;;;;4181723;28;20048;-34
2022/05/25 04:58:24;;;;;;;0.50;0.45;;;;;;;;;;4181978;28;20049;-34
2022/05/25 05:00:25;;;;;;;0.40;0.32;;;;;;;;;;4178029;28;20102;-34
2022/05/25 05:02:27;;;;;;;0.43;0.43;;;;;;;;;;4163231;28;20060;-34
2022/05/25 05:04:28;;;;;;;0.35;0.35;;;;;;;;;;4163042;28;20135;-34
2022/05/25 05:06:29;;;;;;;0.90;0.32;;;;;;;;;;4162681;28;20167;-34
2022/05/25 05:08:31;;;;;;;0.30;0.30;;;;;;;;;;4163128;28;20053;-34
2022/05/25 05:10:32;;;;;;;0.65;0.47;;;;;;;;;;4195019;28;20048;-34
2022/05/25 05:12:32;;;;;;;0.57;0.55;;;;;;;;;;4162618;28;20555;-34
2022/05/25 05:14:34;;;;;;;0.80;0.60;;;;;;;;;;4162020;28;20045;-34
2022/05/25 05:16:35;;;;;;;0.88;0.55;;;;;;;;;;4162356;28;20115;-34
2022/05/25 05:18:49;;;;;;;0.50;0.50;;;;;;;;;;4194688;28;20044;-34
2022/05/25 05:21:16;;;;;;;0.63;0.60;;;;;;;;;;4162886;28;20481;-34
2022/05/25 05:23:17;;;;;;;0.70;0.68;;;;;;;;;;4162810;28;20140;-34
2022/05/25 05:25:18;;;;;;;0.70;0.60;;;;;;;;;;4162454;28;20082;-34
2022/05/25 05:27:19;;;;;;;0.43;0.40;;;;;;;;;;4162726;28;20053;-34
2022/05/25 05:29:20;;;;;;;0.70;0.57;;;;;;;;;;4161128;28;20049;-34
2022/05/25 05:31:21;;;;;;;0.90;0.63;;;;;;;;;;4162686;28;20543;-34
2022/05/25 05:33:22;;;;;;;0.85;0.55;;;;;;;;;;4169495;28;20084;-34
2022/05/25 05:35:24;;;;;;;0.40;0.40;;;;;;;;;;4178921;28;20496;-34
2022/05/25 05:37:30;;;;;;;1.15;0.57;;;;;;;;;;4178322;28;20507;-34
2022/05/25 05:39:34;;;;;;;1.00;0.50;;;;;;;;;;4178961;28;20378;-34
2022/05/25 05:41:37;;;;;;;1.55;0.50;;;;;;;;;;4184206;28;20095;-34
2022/05/25 05:43:39;;;;;;;0.80;0.80;;;;;;;;;;4192570;28;20271;-34
2022/05/25 05:45:41;;;;;;;0.80;0.70;;;;;;;;;;4194964;28;20055;-34
2022/05/25 05:47:45;;;;;;;2.00;0.70;;;;;;;;;;4195657;28;20052;-34
2022/05/25 05:49:46;;;;;;;2.55;0.68;;;;;;;;;;4192595;28;20040;-34
2022/05/25 05:51:47;;;;;;;3.92;0.93;;;;;;;;;;4180079;28;20053;-34
2022/05/25 05:53:49;;;;;;;3.05;1.00;;;;;;;;;;4177601;28;20045;-34
2022/05/25 05:55:50;;;;;;;3.33;1.20;;;;;;;;;;4175261;28;20514;-34
2022/05/25 05:57:51;;;;;;;5.38;1.00;;;;;;;;;;4183243;28;20103;-34
2022/05/25 05:59:52;;;;;;;4.60;1.30;;;;;;;;;;4173575;28;20056;-34
2022/05/25 06:01:53;;;;;;;3.20;0.90;;;;;;;;;;4176617;28;20051;-34
2022/05/25 06:03:54;;;;;;;4.75;1.00;;;;;;;;;;4185305;28;20053;-34
2022/05/25 06:05:55;;;;;;;4.70;1.20;;;;;;;;;;4182480;28;20451;-34
2022/05/25 06:07:56;;;;;;;4.05;1.70;;;;;;;;;;4180589;28;20450;-34
2022/05/25 06:09:57;;;;;;;5.50;0.90;;;;;;;;;;4176970;28;20076;-34
2022/05/25 06:11:58;;;;;;;5.57;1.40;;;;;;;;;;4170456;28;20131;-34
2022/05/25 06:13:59;;;;;;;4.00;1.35;;;;;;;;;;4180441;28;20057;-34
2022/05/25 06:20:39;;;;;;;4.32;1.52;;;;;;;;;;4178144;28;20107;-34
2022/05/25 06:22:39;;;;;;;3.38;1.35;;;;;;;;;;4178170;28;20464;-34
2022/05/25 06:24:45;;;;;;;4.55;1.52;;;;;;;;;;4167922;28;20040;-34
2022/05/25 06:26:46;;;;;;;6.70;1.73;;;;;;;;;;4169215;28;20489;-34
2022/05/25 06:28:47;;;;;;;7.47;1.50;;;;;;;;;;4164792;28;20044;-34
2022/05/25 06:30:47;;;;;;;5.53;1.42;;;;;;;;;;4168430;28;20055;-34
2022/05/25 06:32:48;;;;;;;5.30;1.50;;;;;;;;;;4155177;28;20163;-34
2022/05/25 06:34:50;;;;;;;3.80;1.30;;;;;;;;;;4154716;28;20182;-34
2022/05/25 06:36:51;;;;;;;5.22;1.50;;;;;;;;;;4164718;28;20052;-34
2022/05/25 06:38:53;;;;;;;6.95;1.20;;;;;;;;;;4171320;28;20056;-34
2022/05/25 06:40:54;;;;;;;6.03;1.55;;;;;;;;;;4167879;28;20293;-34
2022/05/25 06:42:55;;;;;;;8.77;1.70;;;;;;;;;;4167136;28;20110;-34
2022/05/25 06:44:57;;;;;;;6.47;1.40;;;;;;;;;;4166791;28;20400;-34
2022/05/25 06:46:58;;;;;;;7.00;1.42;;;;;;;;;;4164038;28;20120;-33
2022/05/25 06:48:59;;;;;;;5.72;1.30;;;;;;;;;;4171473;28;20393;-34
2022/05/25 06:51:29;;;;;;;5.68;1.15;;;;;;;;;;4168533;28;20052;-34
2022/05/25 06:53:30;;;;;;;6.88;1.45;;;;;;;;;;4158611;28;20114;-33
2022/05/25 06:55:31;;;;;;;3.42;1.50;;;;;;;;;;4163938;28;20611;-34
2022/05/25 06:57:32;;;;;;;5.60;1.45;;;;;;;;;;4167172;28;20106;-34
2022/05/25 06:59:33;;;;;;;3.45;1.25;;;;;;;;;;4163012;28;20136;-33
2022/05/25 07:01:34;;;;;;;8.35;1.73;;;;;;;;;;4165772;28;20048;-34
2022/05/25 07:03:36;;;;;;;6.85;1.40;;;;;;;;;;4166973;28;21055;-33
2022/05/25 07:05:36;;;;;;;7.63;1.75;;;;;;;;;;4165897;28;20045;-33
2022/05/25 07:07:38;;;;;;;5.32;1.30;;;;;;;;;;4167611;28;20567;-33
2022/05/25 07:09:39;;;;;;;5.57;1.67;;;;;;;;;;4174504;28;20110;-33
2022/05/25 07:11:42;;;;;;;6.15;1.40;;;;;;;;;;4171862;28;20563;-33
2022/05/25 07:13:43;;;;;;;7.82;2.22;;;;;;;;;;4167142;28;20053;-33
2022/05/25 07:15:44;;;;;;;11.23;1.75;;;;;;;;;;4171466;28;20087;-33
2022/05/25 07:17:48;;;;;;;5.22;1.63;;;;;;;;;;4165451;28;21651;-33
2022/05/25 07:19:49;;;;;;;5.78;1.65;;;;;;;;;;4167567;28;20048;-34
2022/05/25 07:21:50;;;;;;;4.50;1.50;;;;;;;;;;4174026;28;20140;-34
2022/05/25 07:23:52;;;;;;;5.68;1.15;;;;;;;;;;4166496;28;20059;-34
2022/05/25 07:25:54;;;;;;;6.55;1.63;;;;;;;;;;4152529;28;20398;-34
2022/05/25 07:27:55;;;;;;;6.35;1.50;;;;;;;;;;4166165;28;20041;-34
2022/05/25 07:29:59;;;;;;;3.70;1.13;;;;;;;;;;4169524;28;20067;-34
2022/05/25 07:32:01;;;;;;;4.57;1.52;;;;;;;;;;4167914;28;20044;-33
2022/05/25 07:34:17;;;;;;;3.30;1.50;;;;;;;;;;4167625;28;20045;-34
2022/05/25 07:36:19;;;;;;;4.63;1.60;;;;;;;;;;4167910;28;20134;-34
2022/05/25 07:38:20;;;;;;;5.35;1.45;;;;;;;;;;4168490;28;20064;-34
2022/05/25 07:40:26;;;;;;;4.07;1.35;;;;;;;;;;4166578;28;20052;-34
2022/05/25 07:42:28;;;;;;;4.65;2.30;;;;;;;;;;4163634;28;20492;-33
2022/05/25 07:44:36;;;;;;;4.03;1.23;;;;;;;;;;4159177;28;20060;-35
2022/05/25 07:46:37;;;;;;;4.20;1.65;;;;;;;;;;4160626;28;20107;-33
2022/05/25 07:48:38;;;;;;;6.40;1.45;;;;;;;;;;4165648;28;20053;-33
2022/05/25 07:50:40;;;;;;;4.55;1.30;;;;;;;;;;4165034;28;20052;-33
2022/05/25 07:52:41;;;;;;;4.13;1.20;;;;;;;;;;4162706;28;20075;-34
2022/05/25 07:54:43;;;;;;;3.72;1.05;;;;;;;;;;4166515;28;20053;-35
2022/05/25 07:56:44;;;;;;;3.90;1.23;;;;;;;;;;4168907;28;20197;-33
2022/05/25 07:58:45;;;;;;;3.92;1.30;;;;;;;;;;4167898;28;21258;-33
2022/05/25 08:00:48;;;;;;;2.72;1.02;;;;;;;;;;4167750;28;20052;-34
2022/05/25 08:07:29;;;;;;;5.68;1.20;;;;;;;;;;4162606;28;20558;-33
2022/05/25 08:09:31;;;;;;;3.47;1.45;;;;;;;;;;4161160;28;20069;-33
2022/05/25 08:11:34;;;;;;;3.75;1.35;;;;;;;;;;4158509;28;20092;-33
2022/05/25 08:13:37;;;;;;;2.50;1.02;;;;;;;;;;4161509;28;20056;-32
2022/05/25 08:15:42;;;;;;;3.15;1.08;;;;;;;;;;4171269;28;20971;-32
2022/05/25 08:17:43;;;;;;;4.60;1.10;;;;;;;;;;4169814;28;20045;-32
2022/05/25 08:19:44;;;;;;;1.67;1.15;;;;;;;;;;4162421;28;20087;-31
2022/05/25 08:21:47;;;;;;;3.67;1.10;;;;;;;;;;4159335;28;20693;-32
2022/05/25 08:23:48;;;;;;;2.53;1.33;;;;;;;;;;4159319;28;20416;-32
2022/05/25 08:25:49;;;;;;;1.52;0.93;;;;;;;;;;4167177;28;20052;-32
2022/05/25 08:27:50;;;;;;;2.67;1.13;;;;;;;;;;4194244;28;20754;-32
2022/05/25 08:29:51;;;;;;;1.73;0.90;;;;;;;;;;4155367;28;20083;-32
2022/05/25 08:31:55;;;;;;;1.73;1.10;;;;;;;;;;4158399;28;20108;-32
2022/05/25 08:33:56;;;;;;;2.22;1.15;;;;;;;;;;4164838;28;20049;-32
2022/05/25 08:35:58;;;;;;;3.63;1.27;;;;;;;;;;4165039;28;20052;-32
2022/05/25 08:37:59;;;;;;;3.92;1.55;;;;;;;;;;4158649;28;20166;-32
2022/05/25 08:40:00;;;;;;;2.42;1.10;;;;;;;;;;4163869;28;20605;-32
2022/05/25 08:42:05;;;;;;;4.18;1.00;;;;;;;;;;4168300;28;20050;-32
2022/05/25 08:44:07;;;;;;;1.67;1.00;;;;;;;;;;4165341;28;20564;-32
2022/05/25 08:46:14;;;;;;;3.55;1.13;;;;;;;;;;4170042;28;20044;-40
2022/05/25 08:48:15;;;;;;;3.30;1.73;;;;;;;;;;4170028;28;20132;-38
2022/05/25 08:50:17;;;;;;;2.22;1.20;;;;;;;;;;4173715;28;20113;-41
2022/05/25 08:52:43;;;;;;;1.83;0.90;;;;;;;;;;4170837;28;20045;-36
2022/05/25 08:54:45;;;;;;;1.20;1.10;;;;;;;;;;4158749;28;20791;-39
2022/05/25 08:56:47;;;;;;;1.90;1.20;;;;;;;;;;4162052;28;22267;-41
2022/05/25 08:58:52;;;;;;;1.60;0.80;;;;;;;;;;4164704;28;20102;-40
2022/05/25 09:00:54;;;;;;;1.80;1.15;;;;;;;;;;4161577;28;20057;-40
2022/05/25 09:03:04;;;;;;;1.55;0.93;;;;;;;;;;4162842;28;20048;-37
2022/05/25 09:05:11;;;;;;;1.27;1.00;;;;;;;;;;4196477;28;20388;-35
2022/05/25 09:07:21;;;;;;;2.38;1.00;;;;;;;;;;4165628;28;20147;-41
2022/05/25 09:09:22;;;;;;;;;;;;;;;;;;4172029;28;20094;-39
2022/05/25 09:11:25;;;;;;;1.25;1.00;;;;;;;;;;4171729;28;19928;-39
2022/05/25 09:13:35;;;;;;;2.85;1.17;;;;;;;;;;4168455;28;20052;-40
2022/05/25 09:16:15;;;;;;;3.55;1.73;;;;;;;;;;4168354;28;20053;-41
2022/05/25 09:18:13;;;;;;;1.63;0.75;;;;;;;;;;4169306;28;20404;-40
2022/05/25 09:20:19;;;;;;;1.13;0.80;;;;;;;;;;4172789;28;20079;-39
2022/05/25 09:22:24;;;;;;;0.60;0.60;;;;;;;;;;4175885;28;22467;-41
2022/05/25 09:24:26;;;;;;;1.95;0.80;;;;;;;;;;4168264;28;20044;-42
2022/05/25 09:26:28;;;;;;;2.33;0.85;;;;;;;;;;4171041;28;20049;-38
2022/05/25 09:28:33;;;;;;;0.77;0.73;;;;;;;;;;4166382;28;20135;-41
2022/05/25 09:30:37;;;;;;;2.08;0.90;;;;;;;;;;4163759;28;20045;-40
2022/05/25 09:32:48;;;;;;;0.75;0.60;;;;;;;;;;4172130;28;20412;-40
2022/05/25 09:35:08;;;;;;;2.97;0.90;;;;;;;;;;4164027;28;20470;-37
2022/05/25 09:37:14;;;;;;;1.67;0.75;;;;;;;;;;4165636;28;20093;-34
2022/05/25 09:39:21;;;;;;;0.65;0.60;;;;;;;;;;4170284;28;20048;-42
2022/05/25 09:41:24;;;;;;;0.73;0.50;;;;;;;;;;4167460;28;21542;-40
2022/05/25 09:43:25;;;;;;;0.93;0.70;;;;;;;;;;4162412;28;20049;-40
2022/05/25 09:45:36;;;;;;;0.60;0.60;;;;;;;;;;4172420;28;20045;-41
2022/05/25 09:47:41;;;;;;;1.00;0.90;;;;;;;;;;4170034;28;20052;-40
2022/05/25 09:49:45;;;;;;;0.88;0.65;;;;;;;;;;4179883;28;20074;-37
2022/05/25 09:51:50;;;;;;;1.58;0.70;;;;;;;;;;4181399;28;20057;-40
2022/05/25 09:54:06;;;;;;;2.33;0.70;;;;;;;;;;4199809;28;20087;-39
2022/05/25 09:56:21;;;;;;;0.73;0.68;;;;;;;;;;4179947;28;20052;-38
2022/05/25 09:58:36;;;;;;;1.23;0.57;;;;;;;;;;4179492;28;20052;-39
2022/05/25 10:00:37;;;;;;;0.50;0.40;;;;;;;;;;4180630;28;20059;-40
2022/05/25 10:02:41;;;;;;;1.73;0.50;;;;;;;;;;4209586;28;20079;-41
2022/05/25 10:04:56;;;;;;;0.73;0.70;;;;;;;;;;4178021;28;20049;-40
2022/05/25 10:06:57;;;;;;;1.05;0.82;;;;;;;;;;4165770;28;21155;-38
2022/05/25 10:09:17;;;;;;;1.45;0.98;;;;;;;;;;4174712;28;20118;-41
2022/05/25 10:11:33;;;;;;;0.70;0.60;;;;;;;;;;4180033;28;20233;-41
2022/05/25 10:13:42;;;;;;;0.85;0.50;;;;;;;;;;4166351;28;20102;-41
2022/05/25 10:15:43;;;;;;;1.88;0.70;;;;;;;;;;4165001;28;20553;-41
2022/05/25 10:17:46;;;;;;;0.50;0.45;;;;;;;;;;4178005;28;20053;-40
2022/05/25 10:19:49;;;;;;;2.20;0.80;;;;;;;;;;4173187;28;20056;-39
2022/05/25 10:21:52;;;;;;;0.68;0.52;;;;;;;;;;4175916;28;20045;-42
2022/05/25 10:23:54;;;;;;;1.20;0.50;;;;;;;;;;4175097;28;20053;-41
2022/05/25 10:25:57;;;;;;;1.42;0.70;;;;;;;;;;4173442;28;20041;-41
2022/05/25 10:27:59;;;;;;;0.50;0.40;;;;;;;;;;4171645;28;20041;-40
2022/05/25 10:37:16;;;;;;;2.33;0.43;;;;;;;;;;4178522;28;20408;-41
2022/05/25 10:39:20;;;;;;;0.55;0.45;;;;;;;;;;4167865;28;20056;-42
2022/05/25 10:41:39;;;;;;;2.13;0.70;;;;;;;;;;4176853;28;20483;-42
2022/05/25 10:43:40;;;;;;;1.10;0.60;;;;;;;;;;4170257;28;20102;-42
2022/05/25 10:45:44;;;;;;;2.83;0.70;;;;;;;;;;4172071;28;20053;-42
2022/05/25 10:47:57;;;;;;;0.82;0.52;;;;;;;;;;4172219;28;20124;-42
2022/05/25 10:49:58;;;;;;;2.00;0.63;;;;;;;;;;4172029;28;20526;-42
2022/05/25 10:52:08;;;;;;;3.50;0.90;;;;;;;;;;4165916;28;20052;-40
2022/05/25 10:56:29;;;;;;;;;;;;;;;;;;4172862;28;19920;-42
2022/05/25 10:58:30;;;;;;;1.30;0.68;;;;;;;;;;4162839;28;19978;-43
2022/05/25 11:00:46;;;;;;;0.55;0.55;;;;;;;;;;4161347;28;20451;-40
2022/05/25 11:02:47;;;;;;;3.33;0.60;;;;;;;;;;4172507;28;20098;-42
2022/05/25 11:05:01;;;;;;;0.70;0.70;;;;;;;;;;4167124;28;20052;-42
2022/05/25 11:07:21;;;;;;;0.60;0.60;;;;;;;;;;4174799;28;20045;-42
2022/05/25 11:09:30;;;;;;;0.93;0.47;;;;;;;;;;4165000;28;20056;-42
2022/05/25 11:11:32;;;;;;;;;;;;;;;;;;4170121;28;20126;-42
2022/05/25 11:13:51;;;;;;;1.13;0.68;;;;;;;;;;4176090;28;19920;-42
2022/05/25 11:15:55;;;;;;;1.60;0.68;;;;;;;;;;4169087;28;20053;-42
2022/05/25 11:17:59;;;;;;;1.00;0.70;;;;;;;;;;4173974;28;20437;-43
2022/05/25 11:20:08;;;;;;;0.65;0.40;;;;;;;;;;4170272;28;20056;-41
2022/05/25 11:22:26;;;;;;;1.23;0.70;;;;;;;;;;4169875;28;20053;-42
2022/05/25 11:24:42;;;;;;;0.63;0.50;;;;;;;;;;4172341;28;20067;-40
2022/05/25 11:26:49;;;;;;;0.90;0.70;;;;;;;;;;4169981;28;20088;-42
2022/05/25 11:29:04;;;;;;;1.45;0.70;;;;;;;;;;4166560;28;20334;-41
2022/05/25 11:31:14;;;;;;;1.05;0.70;;;;;;;;;;4171338;28;20191;-41
2022/05/25 11:33:27;;;;;;;0.70;0.50;;;;;;;;;;4162665;28;20052;-42
2022/05/25 11:35:48;;;;;;;0.55;0.55;;;;;;;;;;4170092;28;20056;-42
2022/05/25 11:37:49;;;;;;;1.17;0.50;;;;;;;;;;4160438;28;20764;-42
2022/05/25 11:39:57;;;;;;;2.10;0.60;;;;;;;;;;4165006;28;20457;-42
2022/05/25 11:42:10;;;;;;;1.50;0.63;;;;;;;;;;4163094;28;20139;-42
2022/05/25 11:44:13;;;;;;;2.15;0.65;;;;;;;;;;4161924;28;20055;-42
2022/05/25 11:46:14;;;;;;;1.10;0.60;;;;;;;;;;4168646;28;20049;-41
2022/05/25 11:48:27;;;;;;;0.63;0.50;;;;;;;;;;4158958;28;20060;-41
2022/05/25 11:50:34;;;;;;;0.75;0.60;;;;;;;;;;4168741;28;20371;-40
2022/05/25 11:52:45;;;;;;;1.35;0.60;;;;;;;;;;4163523;28;20072;-42
2022/05/25 11:55:04;;;;;;;1.48;0.47;;;;;;;;;;4168404;28;20059;-40
2022/05/25 11:57:26;;;;;;;1.52;0.75;;;;;;;;;;4164834;28;20511;-43
2022/05/25 11:59:30;;;;;;;1.15;0.57;;;;;;;;;;4171357;28;20421;-39
2022/05/25 12:01:36;;;;;;;1.27;0.60;;;;;;;;;;4167006;28;20732;-39
2022/05/25 12:03:46;;;;;;;3.60;0.70;;;;;;;;;;4164756;28;20515;-38
2022/05/25 12:05:47;;;;;;;1.20;0.63;;;;;;;;;;4169322;28;20433;-39
2022/05/25 12:07:51;;;;;;;1.90;0.68;;;;;;;;;;4166765;28;20302;-38
2022/05/25 12:09:51;;;;;;;1.23;0.63;;;;;;;;;;4161177;28;20053;-38
2022/05/25 12:12:12;;;;;;;0.90;0.75;;;;;;;;;;4169187;28;20110;-41
2022/05/25 12:14:34;;;;;;;1.10;0.60;;;;;;;;;;4170283;28;20098;-39
2022/05/25 12:16:39;;;;;;;2.05;0.75;;;;;;;;;;4173708;28;20045;-38
2022/05/25 12:18:47;;;;;;;1.45;0.60;;;;;;;;;;4172144;28;20045;-41
2022/05/25 12:20:51;;;;;;;0.82;0.52;;;;;;;;;;4172718;28;20102;-40
2022/05/25 12:22:54;;;;;;;0.98;0.50;;;;;;;;;;4175101;28;20102;-38
2022/05/25 12:24:57;;;;;;;0.73;0.40;;;;;;;;;;4175732;28;20114;-38
2022/05/25 12:27:01;;;;;;;0.70;0.60;;;;;;;;;;4170967;28;20045;-39
2022/05/25 12:29:08;;;;;;;1.95;0.60;;;;;;;;;;4165285;28;20048;-40
2022/05/25 12:31:21;;;;;;;0.80;0.60;;;;;;;;;;4167210;28;20049;-36
2022/05/25 12:33:24;;;;;;;0.63;0.50;;;;;;;;;;4170345;28;20079;-40
2022/05/25 12:35:26;;;;;;;1.17;0.60;;;;;;;;;;4165749;28;20049;-36
2022/05/25 12:37:33;;;;;;;1.08;0.75;;;;;;;;;;4172155;28;20210;-37
2022/05/25 12:39:46;;;;;;;0.50;0.50;;;;;;;;;;4174009;28;20858;-38
2022/05/25 12:41:47;;;;;;;0.60;0.60;;;;;;;;;;4177390;28;20519;-39
2022/05/25 12:43:53;;;;;;;1.23;0.52;;;;;;;;;;4179266;28;20428;-37
2022/05/25 12:48:30;;;;;;;1.05;0.60;;;;;;;;;;4174177;28;20049;-40
2022/05/25 12:50:37;;;;;;;2.15;0.98;;;;;;;;;;4175382;28;20056;-36
2022/05/25 12:52:39;;;;;;;0.98;0.60;;;;;;;;;;4170176;28;20126;-38
2022/05/25 12:54:42;;;;;;;0.95;0.60;;;;;;;;;;4167721;28;20110;-40